Terminal Aerodrome Forecast
Issued by NWS

Home | Current Version | Previous Version | Text Only | Print | Product List | Glossary On
Versions: 1 2 3 4 5 6 7 8 9 10 11 12 13
000
FTUS42 KMLB 041135
TAFSUA
TAF
KSUA 041135Z 0412/0512 00000KT P6SM SCT027 BKN035
     FM041400 14012KT P6SM SCT020 SCT035
     FM050400 13008KT P6SM SCT025=

USA.gov is the U.S. government's official web portal to all federal, state and local government web resources and services.